LICC/CTA METAR and TAF weather

Enter ICAO airport designator
Station Type Date Time Source
LICC METAR 2019/04/24 16:20 UTC NOAA

LICC 241620Z 11004KT 070V140 6000 SCT025 18/16 Q1016


Station Type Date Time Source
LICC Decoded METAR 2019/04/24 16:20 UTC NOAA

Catania / Fontanarossa, Italy (LICC) 37-28N 015-03E 17M
Apr 24, 2019 - 12:20 PM EDT / 2019.04.24 1620 UTC
Wind: from the ESE (110 degrees) at 5 MPH (4 KT) (direction variable):0
Visibility: 3 mile(s):0
Sky conditions: partly cloudy
Temperature: 64 F (18 C)
Dew Point: 60 F (16 C)
Relative Humidity: 88%
Pressure (altimeter): 30.00 in. Hg (1016 hPa)
ob: LICC 241620Z 11004KT 070V140 6000 SCT025 18/16 Q1016
cycle: 16

Station Type Date Time Source
LICC TAF 2019/04/24 12:21 UTC NOAA

TAF LICC 241100Z 2412/2512 07012KT 9999 FEW020
BECMG 2418/2420 VRB04KT
TEMPO 2500/2506 4000 BR
BECMG 2506/2508 07012KT

Example: see airport list